sensor_id;sensor_type;location;lat;lon;timestamp;temperature;humidity
19039;DHT22;9652;49.014;12.052;2022-12-20T00:01:10;4.30;66.20
19039;DHT22;9652;49.014;12.052;2022-12-20T00:03:40;4.30;66.30
19039;DHT22;9652;49.014;12.052;2022-12-20T00:06:09;4.30;66.30
19039;DHT22;9652;49.014;12.052;2022-12-20T00:08:37;4.30;66.30
19039;DHT22;9652;49.014;12.052;2022-12-20T00:11:06;4.30;66.30
19039;DHT22;9652;49.014;12.052;2022-12-20T00:13:35;4.30;66.40
19039;DHT22;9652;49.014;12.052;2022-12-20T00:16:04;4.30;66.30
19039;DHT22;9652;49.014;12.052;2022-12-20T00:18:34;4.30;66.30
19039;DHT22;9652;49.014;12.052;2022-12-20T00:21:02;4.30;66.30
19039;DHT22;9652;49.014;12.052;2022-12-20T00:23:31;4.20;66.20
19039;DHT22;9652;49.014;12.052;2022-12-20T00:26:02;4.20;66.20
19039;DHT22;9652;49.014;12.052;2022-12-20T00:28:31;4.20;66.30
19039;DHT22;9652;49.014;12.052;2022-12-20T00:31:00;4.30;66.40
19039;DHT22;9652;49.014;12.052;2022-12-20T00:33:28;4.20;66.40
19039;DHT22;9652;49.014;12.052;2022-12-20T00:35:57;4.20;66.40
19039;DHT22;9652;49.014;12.052;2022-12-20T00:38:25;4.30;66.40
19039;DHT22;9652;49.014;12.052;2022-12-20T00:41:00;4.30;66.50
19039;DHT22;9652;49.014;12.052;2022-12-20T00:43:29;4.30;66.60
19039;DHT22;9652;49.014;12.052;2022-12-20T00:45:57;4.30;66.60
19039;DHT22;9652;49.014;12.052;2022-12-20T00:48:25;4.30;66.60
19039;DHT22;9652;49.014;12.052;2022-12-20T00:50:58;4.30;67.00
19039;DHT22;9652;49.014;12.052;2022-12-20T00:53:27;4.30;66.60
19039;DHT22;9652;49.014;12.052;2022-12-20T00:55:55;4.30;66.60
19039;DHT22;9652;49.014;12.052;2022-12-20T00:58:22;4.30;66.60
19039;DHT22;9652;49.014;12.052;2022-12-20T01:00:50;4.30;66.60
19039;DHT22;9652;49.014;12.052;2022-12-20T01:03:17;4.30;66.60
19039;DHT22;9652;49.014;12.052;2022-12-20T01:05:50;4.40;66.60
19039;DHT22;9652;49.014;12.052;2022-12-20T01:08:20;4.30;66.50
19039;DHT22;9652;49.014;12.052;2022-12-20T01:10:57;4.40;66.70
19039;DHT22;9652;49.014;12.052;2022-12-20T01:13:25;4.40;66.60
19039;DHT22;9652;49.014;12.052;2022-12-20T01:15:53;4.40;66.60
19039;DHT22;9652;49.014;12.052;2022-12-20T01:18:20;4.40;66.60
19039;DHT22;9652;49.014;12.052;2022-12-20T01:20:48;4.40;66.60
19039;DHT22;9652;49.014;12.052;2022-12-20T01:23:15;4.40;66.60
19039;DHT22;9652;49.014;12.052;2022-12-20T01:25:44;4.40;66.50
19039;DHT22;9652;49.014;12.052;2022-12-20T01:28:12;4.40;66.50
19039;DHT22;9652;49.014;12.052;2022-12-20T01:30:40;4.30;66.40
19039;DHT22;9652;49.014;12.052;2022-12-20T01:33:08;4.40;66.50
19039;DHT22;9652;49.014;12.052;2022-12-20T01:35:35;4.40;66.50
19039;DHT22;9652;49.014;12.052;2022-12-20T01:38:02;4.40;66.40
19039;DHT22;9652;49.014;12.052;2022-12-20T01:40:29;4.30;66.30
19039;DHT22;9652;49.014;12.052;2022-12-20T01:42:59;4.40;66.40
19039;DHT22;9652;49.014;12.052;2022-12-20T01:45:29;4.30;66.30
19039;DHT22;9652;49.014;12.052;2022-12-20T01:47:58;4.30;66.50
19039;DHT22;9652;49.014;12.052;2022-12-20T01:50:25;4.30;66.50
19039;DHT22;9652;49.014;12.052;2022-12-20T01:52:53;4.30;66.50
19039;DHT22;9652;49.014;12.052;2022-12-20T01:55:23;4.30;66.50
19039;DHT22;9652;49.014;12.052;2022-12-20T01:57:54;4.30;66.40
19039;DHT22;9652;49.014;12.052;2022-12-20T02:00:26;4.30;66.40
19039;DHT22;9652;49.014;12.052;2022-12-20T02:02:54;4.30;66.30
19039;DHT22;9652;49.014;12.052;2022-12-20T02:05:25;4.30;66.30
19039;DHT22;9652;49.014;12.052;2022-12-20T02:07:53;4.20;66.30
19039;DHT22;9652;49.014;12.052;2022-12-20T02:10:27;4.20;66.30
19039;DHT22;9652;49.014;12.052;2022-12-20T02:13:06;4.20;66.50
19039;DHT22;9652;49.014;12.052;2022-12-20T02:15:45;4.20;67.30
19039;DHT22;9652;49.014;12.052;2022-12-20T02:18:21;4.20;66.50
19039;DHT22;9652;49.014;12.052;2022-12-20T02:21:07;4.20;66.50
19039;DHT22;9652;49.014;12.052;2022-12-20T02:27:40;4.20;66.60
19039;DHT22;9652;49.014;12.052;2022-12-20T02:30:19;4.20;66.50
19039;DHT22;9652;49.014;12.052;2022-12-20T02:32:51;4.20;66.50
19039;DHT22;9652;49.014;12.052;2022-12-20T02:35:27;4.20;66.50
19039;DHT22;9652;49.014;12.052;2022-12-20T02:37:59;4.20;66.50
19039;DHT22;9652;49.014;12.052;2022-12-20T02:40:31;4.10;66.50
19039;DHT22;9652;49.014;12.052;2022-12-20T02:43:06;4.20;66.50
19039;DHT22;9652;49.014;12.052;2022-12-20T02:45:59;4.10;66.50
19039;DHT22;9652;49.014;12.052;2022-12-20T02:48:29;4.10;66.50
19039;DHT22;9652;49.014;12.052;2022-12-20T02:50:59;4.10;66.50
19039;DHT22;9652;49.014;12.052;2022-12-20T02:53:29;4.10;66.50
19039;DHT22;9652;49.014;12.052;2022-12-20T02:56:02;4.10;66.50
19039;DHT22;9652;49.014;12.052;2022-12-20T02:58:42;4.10;66.60
19039;DHT22;9652;49.014;12.052;2022-12-20T03:01:20;4.00;66.60
19039;DHT22;9652;49.014;12.052;2022-12-20T03:03:50;4.10;66.50
19039;DHT22;9652;49.014;12.052;2022-12-20T03:06:20;4.00;66.50
19039;DHT22;9652;49.014;12.052;2022-12-20T03:08:47;4.00;66.40
19039;DHT22;9652;49.014;12.052;2022-12-20T03:11:14;4.00;66.30
19039;DHT22;9652;49.014;12.052;2022-12-20T03:13:42;4.00;66.30
19039;DHT22;9652;49.014;12.052;2022-12-20T03:16:09;3.90;66.30
19039;DHT22;9652;49.014;12.052;2022-12-20T03:18:38;3.90;66.40
19039;DHT22;9652;49.014;12.052;2022-12-20T03:21:05;3.90;66.40
19039;DHT22;9652;49.014;12.052;2022-12-20T03:23:33;3.90;66.40
19039;DHT22;9652;49.014;12.052;2022-12-20T03:26:00;3.90;66.60
19039;DHT22;9652;49.014;12.052;2022-12-20T03:28:34;3.80;66.60
19039;DHT22;9652;49.014;12.052;2022-12-20T03:31:03;3.90;66.70
19039;DHT22;9652;49.014;12.052;2022-12-20T03:33:37;3.80;66.70
19039;DHT22;9652;49.014;12.052;2022-12-20T03:36:07;3.80;66.70
19039;DHT22;9652;49.014;12.052;2022-12-20T03:38:34;3.80;66.80
19039;DHT22;9652;49.014;12.052;2022-12-20T03:41:04;3.80;66.80
19039;DHT22;9652;49.014;12.052;2022-12-20T03:43:31;3.90;66.90
19039;DHT22;9652;49.014;12.052;2022-12-20T03:45:58;3.90;67.10
19039;DHT22;9652;49.014;12.052;2022-12-20T03:48:30;3.90;67.10
19039;DHT22;9652;49.014;12.052;2022-12-20T03:50:58;3.90;67.10
19039;DHT22;9652;49.014;12.052;2022-12-20T03:53:25;3.90;67.10
19039;DHT22;9652;49.014;12.052;2022-12-20T03:55:53;3.90;67.20
19039;DHT22;9652;49.014;12.052;2022-12-20T03:58:20;3.90;67.10
19039;DHT22;9652;49.014;12.052;2022-12-20T04:00:47;3.90;67.20
19039;DHT22;9652;49.014;12.052;2022-12-20T04:03:33;4.00;67.40
19039;DHT22;9652;49.014;12.052;2022-12-20T04:06:01;4.00;67.30
19039;DHT22;9652;49.014;12.052;2022-12-20T04:08:29;4.00;67.40
19039;DHT22;9652;49.014;12.052;2022-12-20T04:10:57;4.00;67.30
19039;DHT22;9652;49.014;12.052;2022-12-20T04:13:54;4.10;67.30
19039;DHT22;9652;49.014;12.052;2022-12-20T04:16:23;4.10;67.20
19039;DHT22;9652;49.014;12.052;2022-12-20T04:18:53;4.10;67.20
19039;DHT22;9652;49.014;12.052;2022-12-20T04:21:22;4.10;67.10
19039;DHT22;9652;49.014;12.052;2022-12-20T04:23:53;4.10;67.20
19039;DHT22;9652;49.014;12.052;2022-12-20T04:26:22;4.10;67.20
19039;DHT22;9652;49.014;12.052;2022-12-20T04:28:50;4.10;67.20
19039;DHT22;9652;49.014;12.052;2022-12-20T04:31:17;4.10;67.20
19039;DHT22;9652;49.014;12.052;2022-12-20T04:33:45;4.10;67.20
19039;DHT22;9652;49.014;12.052;2022-12-20T04:36:14;4.10;67.20
19039;DHT22;9652;49.014;12.052;2022-12-20T04:38:42;4.10;67.20
19039;DHT22;9652;49.014;12.052;2022-12-20T04:41:10;4.10;67.20
19039;DHT22;9652;49.014;12.052;2022-12-20T04:43:50;4.10;67.20
19039;DHT22;9652;49.014;12.052;2022-12-20T04:46:19;4.10;67.30
19039;DHT22;9652;49.014;12.052;2022-12-20T04:48:49;4.10;67.10
19039;DHT22;9652;49.014;12.052;2022-12-20T04:51:16;4.10;67.00
19039;DHT22;9652;49.014;12.052;2022-12-20T04:53:44;4.10;67.00
19039;DHT22;9652;49.014;12.052;2022-12-20T04:56:40;4.20;67.00
19039;DHT22;9652;49.014;12.052;2022-12-20T04:59:10;4.10;67.00
19039;DHT22;9652;49.014;12.052;2022-12-20T05:01:39;4.10;67.20
19039;DHT22;9652;49.014;12.052;2022-12-20T05:04:06;4.10;67.30
19039;DHT22;9652;49.014;12.052;2022-12-20T05:06:36;4.10;67.30
19039;DHT22;9652;49.014;12.052;2022-12-20T05:09:05;4.10;67.30
19039;DHT22;9652;49.014;12.052;2022-12-20T05:11:33;4.10;67.30
19039;DHT22;9652;49.014;12.052;2022-12-20T05:14:02;4.10;67.30
19039;DHT22;9652;49.014;12.052;2022-12-20T05:16:29;4.10;67.20
19039;DHT22;9652;49.014;12.052;2022-12-20T05:18:57;4.10;67.20
19039;DHT22;9652;49.014;12.052;2022-12-20T05:21:25;4.20;67.30
19039;DHT22;9652;49.014;12.052;2022-12-20T05:24:11;4.20;67.30
19039;DHT22;9652;49.014;12.052;2022-12-20T05:27:10;4.20;67.30
19039;DHT22;9652;49.014;12.052;2022-12-20T05:29:37;4.20;67.30
19039;DHT22;9652;49.014;12.052;2022-12-20T05:32:04;4.20;67.30
19039;DHT22;9652;49.014;12.052;2022-12-20T05:34:37;4.20;67.30
19039;DHT22;9652;49.014;12.052;2022-12-20T05:37:04;4.20;67.30
19039;DHT22;9652;49.014;12.052;2022-12-20T05:39:34;4.20;67.30
19039;DHT22;9652;49.014;12.052;2022-12-20T05:42:06;4.20;67.30
19039;DHT22;9652;49.014;12.052;2022-12-20T05:44:33;4.30;67.30
19039;DHT22;9652;49.014;12.052;2022-12-20T05:47:01;4.30;67.30
19039;DHT22;9652;49.014;12.052;2022-12-20T05:49:31;4.30;68.10
19039;DHT22;9652;49.014;12.052;2022-12-20T05:52:01;4.30;67.30
19039;DHT22;9652;49.014;12.052;2022-12-20T05:54:29;4.30;67.30
19039;DHT22;9652;49.014;12.052;2022-12-20T05:57:11;4.30;67.20
19039;DHT22;9652;49.014;12.052;2022-12-20T05:59:40;4.30;67.20
19039;DHT22;9652;49.014;12.052;2022-12-20T06:02:15;4.30;67.20
19039;DHT22;9652;49.014;12.052;2022-12-20T06:04:43;4.30;67.20
19039;DHT22;9652;49.014;12.052;2022-12-20T06:07:16;4.40;67.20
19039;DHT22;9652;49.014;12.052;2022-12-20T06:09:47;4.30;67.10
19039;DHT22;9652;49.014;12.052;2022-12-20T06:12:18;4.30;67.00
19039;DHT22;9652;49.014;12.052;2022-12-20T06:14:47;4.30;67.00
19039;DHT22;9652;49.014;12.052;2022-12-20T06:17:14;4.30;66.90
19039;DHT22;9652;49.014;12.052;2022-12-20T06:19:42;4.30;66.90
19039;DHT22;9652;49.014;12.052;2022-12-20T06:22:12;4.30;67.00
19039;DHT22;9652;49.014;12.052;2022-12-20T06:24:46;4.30;67.00
19039;DHT22;9652;49.014;12.052;2022-12-20T06:27:14;4.30;67.00
19039;DHT22;9652;49.014;12.052;2022-12-20T06:29:44;4.30;67.00
19039;DHT22;9652;49.014;12.052;2022-12-20T06:32:17;4.30;67.10
19039;DHT22;9652;49.014;12.052;2022-12-20T06:34:45;4.30;67.00
19039;DHT22;9652;49.014;12.052;2022-12-20T06:37:13;4.30;67.10
19039;DHT22;9652;49.014;12.052;2022-12-20T06:39:40;4.30;67.10
19039;DHT22;9652;49.014;12.052;2022-12-20T06:42:08;4.30;67.20
19039;DHT22;9652;49.014;12.052;2022-12-20T06:44:38;4.30;67.10
19039;DHT22;9652;49.014;12.052;2022-12-20T06:47:06;4.30;67.10
19039;DHT22;9652;49.014;12.052;2022-12-20T06:49:33;4.30;67.20
19039;DHT22;9652;49.014;12.052;2022-12-20T06:52:08;4.30;67.20
19039;DHT22;9652;49.014;12.052;2022-12-20T06:54:47;4.30;67.30
19039;DHT22;9652;49.014;12.052;2022-12-20T06:57:14;4.30;67.30
19039;DHT22;9652;49.014;12.052;2022-12-20T06:59:45;4.20;67.30
19039;DHT22;9652;49.014;12.052;2022-12-20T07:02:14;4.30;67.40
19039;DHT22;9652;49.014;12.052;2022-12-20T07:04:41;4.30;67.40
19039;DHT22;9652;49.014;12.052;2022-12-20T07:07:10;4.30;67.40
19039;DHT22;9652;49.014;12.052;2022-12-20T07:09:38;4.30;67.40
19039;DHT22;9652;49.014;12.052;2022-12-20T07:12:06;4.30;67.40
19039;DHT22;9652;49.014;12.052;2022-12-20T07:14:33;4.30;67.40
19039;DHT22;9652;49.014;12.052;2022-12-20T07:17:01;4.30;67.30
19039;DHT22;9652;49.014;12.052;2022-12-20T07:19:30;4.40;67.50
19039;DHT22;9652;49.014;12.052;2022-12-20T07:21:57;4.40;67.50
19039;DHT22;9652;49.014;12.052;2022-12-20T07:24:25;4.40;67.60
19039;DHT22;9652;49.014;12.052;2022-12-20T07:26:52;4.40;67.50
19039;DHT22;9652;49.014;12.052;2022-12-20T07:29:19;4.40;67.30
19039;DHT22;9652;49.014;12.052;2022-12-20T07:31:46;4.40;67.30
19039;DHT22;9652;49.014;12.052;2022-12-20T07:34:13;4.40;67.40
19039;DHT22;9652;49.014;12.052;2022-12-20T07:36:42;4.40;67.50
19039;DHT22;9652;49.014;12.052;2022-12-20T07:39:09;4.60;67.60
19039;DHT22;9652;49.014;12.052;2022-12-20T07:41:36;4.50;67.50
19039;DHT22;9652;49.014;12.052;2022-12-20T07:44:04;4.50;67.50
19039;DHT22;9652;49.014;12.052;2022-12-20T07:46:32;4.50;67.50
19039;DHT22;9652;49.014;12.052;2022-12-20T07:48:59;4.50;67.50
19039;DHT22;9652;49.014;12.052;2022-12-20T07:51:28;4.60;67.70
19039;DHT22;9652;49.014;12.052;2022-12-20T07:54:01;4.60;67.60
19039;DHT22;9652;49.014;12.052;2022-12-20T07:56:31;4.60;67.60
19039;DHT22;9652;49.014;12.052;2022-12-20T07:59:01;4.60;67.70
19039;DHT22;9652;49.014;12.052;2022-12-20T08:01:30;4.70;67.70
19039;DHT22;9652;49.014;12.052;2022-12-20T08:04:01;4.70;67.50
19039;DHT22;9652;49.014;12.052;2022-12-20T08:06:31;4.70;67.50
19039;DHT22;9652;49.014;12.052;2022-12-20T08:09:04;4.80;67.50
19039;DHT22;9652;49.014;12.052;2022-12-20T08:11:33;4.80;67.40
19039;DHT22;9652;49.014;12.052;2022-12-20T08:14:04;4.80;67.20
19039;DHT22;9652;49.014;12.052;2022-12-20T08:16:33;4.80;67.20
19039;DHT22;9652;49.014;12.052;2022-12-20T08:19:00;4.80;67.10
19039;DHT22;9652;49.014;12.052;2022-12-20T08:21:27;4.80;67.20
19039;DHT22;9652;49.014;12.052;2022-12-20T08:23:56;4.80;67.30
19039;DHT22;9652;49.014;12.052;2022-12-20T08:26:24;4.90;67.40
19039;DHT22;9652;49.014;12.052;2022-12-20T08:28:53;4.90;67.40
19039;DHT22;9652;49.014;12.052;2022-12-20T08:31:20;4.90;67.40
19039;DHT22;9652;49.014;12.052;2022-12-20T08:33:48;5.00;67.40
19039;DHT22;9652;49.014;12.052;2022-12-20T08:36:15;5.00;67.40
19039;DHT22;9652;49.014;12.052;2022-12-20T08:38:42;5.00;67.20
19039;DHT22;9652;49.014;12.052;2022-12-20T08:41:10;5.00;67.20
19039;DHT22;9652;49.014;12.052;2022-12-20T08:43:41;5.10;67.20
19039;DHT22;9652;49.014;12.052;2022-12-20T08:46:10;5.10;67.20
19039;DHT22;9652;49.014;12.052;2022-12-20T08:48:38;5.10;67.20
19039;DHT22;9652;49.014;12.052;2022-12-20T08:51:07;5.20;67.30
19039;DHT22;9652;49.014;12.052;2022-12-20T08:53:35;5.20;67.20
19039;DHT22;9652;49.014;12.052;2022-12-20T08:56:05;5.30;67.30
19039;DHT22;9652;49.014;12.052;2022-12-20T08:58:36;5.30;67.30
19039;DHT22;9652;49.014;12.052;2022-12-20T09:01:08;5.40;67.30
19039;DHT22;9652;49.014;12.052;2022-12-20T09:03:38;5.40;67.20
19039;DHT22;9652;49.014;12.052;2022-12-20T09:06:07;5.50;67.10
19039;DHT22;9652;49.014;12.052;2022-12-20T09:08:37;5.50;66.90
19039;DHT22;9652;49.014;12.052;2022-12-20T09:11:06;5.50;66.80
19039;DHT22;9652;49.014;12.052;2022-12-20T09:13:37;5.50;66.70
19039;DHT22;9652;49.014;12.052;2022-12-20T09:16:07;5.60;66.80
19039;DHT22;9652;49.014;12.052;2022-12-20T09:18:34;5.60;66.80
19039;DHT22;9652;49.014;12.052;2022-12-20T09:21:03;5.60;66.70
19039;DHT22;9652;49.014;12.052;2022-12-20T09:23:33;5.60;66.60
19039;DHT22;9652;49.014;12.052;2022-12-20T09:26:02;5.70;66.60
19039;DHT22;9652;49.014;12.052;2022-12-20T09:28:31;5.70;66.50
19039;DHT22;9652;49.014;12.052;2022-12-20T09:30:58;5.70;66.30
19039;DHT22;9652;49.014;12.052;2022-12-20T09:33:27;5.70;66.20
19039;DHT22;9652;49.014;12.052;2022-12-20T09:35:56;5.80;66.10
19039;DHT22;9652;49.014;12.052;2022-12-20T09:38:24;5.70;66.10
19039;DHT22;9652;49.014;12.052;2022-12-20T09:40:54;5.80;66.30
19039;DHT22;9652;49.014;12.052;2022-12-20T09:43:24;5.80;66.30
19039;DHT22;9652;49.014;12.052;2022-12-20T09:45:53;5.80;66.50
19039;DHT22;9652;49.014;12.052;2022-12-20T09:48:28;5.90;66.50
19039;DHT22;9652;49.014;12.052;2022-12-20T09:51:06;5.90;66.50
19039;DHT22;9652;49.014;12.052;2022-12-20T09:53:50;6.00;66.40
19039;DHT22;9652;49.014;12.052;2022-12-20T09:56:31;6.00;66.20
19039;DHT22;9652;49.014;12.052;2022-12-20T09:59:05;6.10;66.10
19039;DHT22;9652;49.014;12.052;2022-12-20T10:01:37;6.10;66.00
19039;DHT22;9652;49.014;12.052;2022-12-20T10:04:11;6.10;66.00
19039;DHT22;9652;49.014;12.052;2022-12-20T10:06:48;6.20;66.00
19039;DHT22;9652;49.014;12.052;2022-12-20T10:09:39;6.20;66.00
19039;DHT22;9652;49.014;12.052;2022-12-20T10:12:21;6.30;65.80
19039;DHT22;9652;49.014;12.052;2022-12-20T10:15:08;6.30;65.90
19039;DHT22;9652;49.014;12.052;2022-12-20T10:17:49;6.40;65.80
19039;DHT22;9652;49.014;12.052;2022-12-20T10:20:39;6.40;65.50
19039;DHT22;9652;49.014;12.052;2022-12-20T10:23:18;6.50;65.20
19039;DHT22;9652;49.014;12.052;2022-12-20T10:25:51;6.40;65.40
19039;DHT22;9652;49.014;12.052;2022-12-20T10:28:25;6.40;65.40
19039;DHT22;9652;49.014;12.052;2022-12-20T10:30:59;6.40;65.40
19039;DHT22;9652;49.014;12.052;2022-12-20T10:33:31;6.40;65.50
19039;DHT22;9652;49.014;12.052;2022-12-20T10:36:18;6.40;65.60
19039;DHT22;9652;49.014;12.052;2022-12-20T10:38:48;6.50;65.40
19039;DHT22;9652;49.014;12.052;2022-12-20T10:41:18;6.60;65.80
19039;DHT22;9652;49.014;12.052;2022-12-20T10:43:51;6.60;65.90
19039;DHT22;9652;49.014;12.052;2022-12-20T10:46:22;6.70;65.60
19039;DHT22;9652;49.014;12.052;2022-12-20T10:49:20;6.80;65.50
19039;DHT22;9652;49.014;12.052;2022-12-20T10:51:57;6.80;64.70
19039;DHT22;9652;49.014;12.052;2022-12-20T10:54:32;6.90;65.00
19039;DHT22;9652;49.014;12.052;2022-12-20T10:57:02;6.90;64.80
19039;DHT22;9652;49.014;12.052;2022-12-20T10:59:44;6.90;64.70
19039;DHT22;9652;49.014;12.052;2022-12-20T11:02:25;6.90;64.50
19039;DHT22;9652;49.014;12.052;2022-12-20T11:04:59;6.90;64.50
19039;DHT22;9652;49.014;12.052;2022-12-20T11:07:30;7.00;64.50
19039;DHT22;9652;49.014;12.052;2022-12-20T11:10:18;7.10;64.50
19039;DHT22;9652;49.014;12.052;2022-12-20T11:12:52;7.00;64.50
19039;DHT22;9652;49.014;12.052;2022-12-20T11:15:21;7.00;64.50
19039;DHT22;9652;49.014;12.052;2022-12-20T11:17:55;7.00;64.50
19039;DHT22;9652;49.014;12.052;2022-12-20T11:20:32;7.10;64.50
19039;DHT22;9652;49.014;12.052;2022-12-20T11:23:14;7.10;64.30
19039;DHT22;9652;49.014;12.052;2022-12-20T11:25:57;7.10;64.10
19039;DHT22;9652;49.014;12.052;2022-12-20T11:28:48;7.10;64.00
19039;DHT22;9652;49.014;12.052;2022-12-20T11:31:28;7.20;63.80
19039;DHT22;9652;49.014;12.052;2022-12-20T11:34:27;7.20;63.80
19039;DHT22;9652;49.014;12.052;2022-12-20T11:37:16;7.20;63.50
19039;DHT22;9652;49.014;12.052;2022-12-20T11:40:03;7.10;63.20
19039;DHT22;9652;49.014;12.052;2022-12-20T11:42:47;7.10;63.10
19039;DHT22;9652;49.014;12.052;2022-12-20T11:45:24;7.00;62.90
19039;DHT22;9652;49.014;12.052;2022-12-20T11:48:09;7.00;63.10
19039;DHT22;9652;49.014;12.052;2022-12-20T11:51:00;6.90;63.20
19039;DHT22;9652;49.014;12.052;2022-12-20T11:53:35;6.90;63.20
19039;DHT22;9652;49.014;12.052;2022-12-20T11:56:09;6.80;63.40
19039;DHT22;9652;49.014;12.052;2022-12-20T11:58:47;6.70;63.70
19039;DHT22;9652;49.014;12.052;2022-12-20T12:01:20;6.70;63.90
19039;DHT22;9652;49.014;12.052;2022-12-20T12:04:01;6.70;64.10
19039;DHT22;9652;49.014;12.052;2022-12-20T12:06:38;6.70;64.10
19039;DHT22;9652;49.014;12.052;2022-12-20T12:09:17;6.70;64.40
19039;DHT22;9652;49.014;12.052;2022-12-20T12:11:55;6.80;64.20
19039;DHT22;9652;49.014;12.052;2022-12-20T12:14:37;6.80;64.20
19039;DHT22;9652;49.014;12.052;2022-12-20T12:17:16;6.80;64.20
19039;DHT22;9652;49.014;12.052;2022-12-20T12:19:49;6.80;64.40
19039;DHT22;9652;49.014;12.052;2022-12-20T12:22:26;6.90;64.50
19039;DHT22;9652;49.014;12.052;2022-12-20T12:25:02;6.90;64.50
19039;DHT22;9652;49.014;12.052;2022-12-20T12:27:37;6.90;64.40
19039;DHT22;9652;49.014;12.052;2022-12-20T12:30:06;7.00;64.20
19039;DHT22;9652;49.014;12.052;2022-12-20T12:32:40;7.00;64.20
19039;DHT22;9652;49.014;12.052;2022-12-20T12:35:24;7.00;64.10
19039;DHT22;9652;49.014;12.052;2022-12-20T12:38:33;7.00;64.00
19039;DHT22;9652;49.014;12.052;2022-12-20T12:44:35;7.00;64.10
19039;DHT22;9652;49.014;12.052;2022-12-20T12:47:14;7.10;64.10
19039;DHT22;9652;49.014;12.052;2022-12-20T12:49:48;7.10;64.20
19039;DHT22;9652;49.014;12.052;2022-12-20T12:52:40;7.10;64.20
19039;DHT22;9652;49.014;12.052;2022-12-20T12:55:36;7.20;64.10
19039;DHT22;9652;49.014;12.052;2022-12-20T12:58:14;7.20;63.80
19039;DHT22;9652;49.014;12.052;2022-12-20T13:01:02;7.20;63.80
19039;DHT22;9652;49.014;12.052;2022-12-20T13:07:00;7.20;63.60
19039;DHT22;9652;49.014;12.052;2022-12-20T13:09:38;7.20;63.70
19039;DHT22;9652;49.014;12.052;2022-12-20T13:12:52;7.20;63.80
19039;DHT22;9652;49.014;12.052;2022-12-20T13:15:51;7.20;63.60
19039;DHT22;9652;49.014;12.052;2022-12-20T13:18:35;7.10;63.50
19039;DHT22;9652;49.014;12.052;2022-12-20T13:21:34;7.10;63.90
19039;DHT22;9652;49.014;12.052;2022-12-20T13:24:38;7.10;63.70
19039;DHT22;9652;49.014;12.052;2022-12-20T13:27:24;7.10;63.50
19039;DHT22;9652;49.014;12.052;2022-12-20T13:29:59;7.10;63.80
19039;DHT22;9652;49.014;12.052;2022-12-20T13:32:58;7.10;63.80
19039;DHT22;9652;49.014;12.052;2022-12-20T13:38:57;7.10;63.90
19039;DHT22;9652;49.014;12.052;2022-12-20T13:41:33;7.10;64.10
19039;DHT22;9652;49.014;12.052;2022-12-20T13:44:18;7.10;64.00
19039;DHT22;9652;49.014;12.052;2022-12-20T13:47:05;7.10;64.00
19039;DHT22;9652;49.014;12.052;2022-12-20T13:49:42;7.10;64.20
19039;DHT22;9652;49.014;12.052;2022-12-20T13:52:22;7.10;63.90
19039;DHT22;9652;49.014;12.052;2022-12-20T13:54:56;7.00;63.60
19039;DHT22;9652;49.014;12.052;2022-12-20T13:57:28;7.00;63.70
19039;DHT22;9652;49.014;12.052;2022-12-20T14:00:01;6.90;63.70
19039;DHT22;9652;49.014;12.052;2022-12-20T14:02:34;6.90;63.80
19039;DHT22;9652;49.014;12.052;2022-12-20T14:05:14;6.90;63.80
19039;DHT22;9652;49.014;12.052;2022-12-20T14:07:46;6.80;63.80
19039;DHT22;9652;49.014;12.052;2022-12-20T14:10:19;6.80;64.10
19039;DHT22;9652;49.014;12.052;2022-12-20T14:12:49;6.80;64.20
19039;DHT22;9652;49.014;12.052;2022-12-20T14:15:21;6.70;64.30
19039;DHT22;9652;49.014;12.052;2022-12-20T14:17:50;6.70;64.30
19039;DHT22;9652;49.014;12.052;2022-12-20T14:20:22;6.70;64.40
19039;DHT22;9652;49.014;12.052;2022-12-20T14:22:56;6.70;64.50
19039;DHT22;9652;49.014;12.052;2022-12-20T14:25:34;6.60;64.40
19039;DHT22;9652;49.014;12.052;2022-12-20T14:28:05;6.60;64.40
19039;DHT22;9652;49.014;12.052;2022-12-20T14:30:43;6.60;64.60
19039;DHT22;9652;49.014;12.052;2022-12-20T14:33:19;6.60;64.70
19039;DHT22;9652;49.014;12.052;2022-12-20T14:35:50;6.60;64.70
19039;DHT22;9652;49.014;12.052;2022-12-20T14:38:21;6.50;64.60
19039;DHT22;9652;49.014;12.052;2022-12-20T14:40:50;6.50;64.60
19039;DHT22;9652;49.014;12.052;2022-12-20T14:43:26;6.50;64.70
19039;DHT22;9652;49.014;12.052;2022-12-20T14:46:17;6.50;64.70
19039;DHT22;9652;49.014;12.052;2022-12-20T14:48:47;6.50;64.70
19039;DHT22;9652;49.014;12.052;2022-12-20T14:51:20;6.40;64.70
19039;DHT22;9652;49.014;12.052;2022-12-20T14:53:48;6.40;64.80
19039;DHT22;9652;49.014;12.052;2022-12-20T14:56:18;6.40;64.90
19039;DHT22;9652;49.014;12.052;2022-12-20T14:59:02;6.40;64.90
19039;DHT22;9652;49.014;12.052;2022-12-20T15:01:32;6.40;64.90
19039;DHT22;9652;49.014;12.052;2022-12-20T15:03:59;6.40;65.00
19039;DHT22;9652;49.014;12.052;2022-12-20T15:06:38;6.40;65.00
19039;DHT22;9652;49.014;12.052;2022-12-20T15:09:09;6.40;65.00
19039;DHT22;9652;49.014;12.052;2022-12-20T15:11:37;6.30;65.00
19039;DHT22;9652;49.014;12.052;2022-12-20T15:14:14;6.30;65.00
19039;DHT22;9652;49.014;12.052;2022-12-20T15:16:48;6.30;65.10
19039;DHT22;9652;49.014;12.052;2022-12-20T15:19:15;6.30;65.10
19039;DHT22;9652;49.014;12.052;2022-12-20T15:21:45;6.30;65.60
19039;DHT22;9652;49.014;12.052;2022-12-20T15:24:13;6.30;65.20
19039;DHT22;9652;49.014;12.052;2022-12-20T15:26:43;6.30;65.20
19039;DHT22;9652;49.014;12.052;2022-12-20T15:29:14;6.30;65.20
19039;DHT22;9652;49.014;12.052;2022-12-20T15:31:43;6.20;65.10
19039;DHT22;9652;49.014;12.052;2022-12-20T15:34:13;6.20;65.20
19039;DHT22;9652;49.014;12.052;2022-12-20T15:36:46;6.20;65.20
19039;DHT22;9652;49.014;12.052;2022-12-20T15:39:13;6.20;65.20
19039;DHT22;9652;49.014;12.052;2022-12-20T15:41:42;6.20;65.20
19039;DHT22;9652;49.014;12.052;2022-12-20T15:44:13;6.10;65.40
19039;DHT22;9652;49.014;12.052;2022-12-20T15:46:42;6.10;65.50
19039;DHT22;9652;49.014;12.052;2022-12-20T15:49:13;6.10;65.50
19039;DHT22;9652;49.014;12.052;2022-12-20T15:51:42;6.10;65.60
19039;DHT22;9652;49.014;12.052;2022-12-20T15:54:19;6.10;65.60
19039;DHT22;9652;49.014;12.052;2022-12-20T15:56:49;6.10;65.60
19039;DHT22;9652;49.014;12.052;2022-12-20T15:59:16;6.10;65.60
19039;DHT22;9652;49.014;12.052;2022-12-20T16:01:43;6.10;65.80
19039;DHT22;9652;49.014;12.052;2022-12-20T16:04:13;6.10;65.80
19039;DHT22;9652;49.014;12.052;2022-12-20T16:06:42;6.10;65.90
19039;DHT22;9652;49.014;12.052;2022-12-20T16:09:10;6.10;66.00
19039;DHT22;9652;49.014;12.052;2022-12-20T16:11:39;6.10;66.10
19039;DHT22;9652;49.014;12.052;2022-12-20T16:14:13;6.10;66.00
19039;DHT22;9652;49.014;12.052;2022-12-20T16:16:42;6.10;66.00
19039;DHT22;9652;49.014;12.052;2022-12-20T16:19:10;6.10;66.00
19039;DHT22;9652;49.014;12.052;2022-12-20T16:21:41;6.10;66.00
19039;DHT22;9652;49.014;12.052;2022-12-20T16:24:13;6.10;66.10
19039;DHT22;9652;49.014;12.052;2022-12-20T16:26:43;6.10;66.10
19039;DHT22;9652;49.014;12.052;2022-12-20T16:29:11;6.10;66.00
19039;DHT22;9652;49.014;12.052;2022-12-20T16:31:39;6.10;66.00
19039;DHT22;9652;49.014;12.052;2022-12-20T16:34:11;6.10;66.00